Time,TemperatureF,DewpointF,PressureIn,WindDirection,WindDirectionDegrees,WindSpeedMPH,WindSpeedGustMPH,Humidity,HourlyPrecipIn,Conditions,Clouds,dailyrainin,SolarRadiationWatts/m^2,SoftwareType,DateUTC
2013-05-23 00:03:00,64.0,64.0,-100.00,SSE,156,2.0,5.0,99,0.00,,,0.83,0.000000,,2013-05-23 04:03:00,
2013-05-23 00:12:00,64.0,64.0,-100.00,SSE,156,2.0,5.0,99,0.00,,,0.83,0.000000,,2013-05-23 04:12:00,
2013-05-23 00:33:00,64.0,64.0,-100.00,WSW,254,3.0,5.0,99,0.00,,,0.82,0.000000,,2013-05-23 04:33:00,
2013-05-23 00:43:00,64.0,64.0,-100.00,WSW,254,3.0,5.0,99,0.00,,,0.82,0.000000,,2013-05-23 04:43:00,
2013-05-23 00:52:00,64.0,64.0,-100.00,WSW,254,3.0,5.0,99,0.00,,,0.82,0.000000,,2013-05-23 04:52:00,
2013-05-23 01:02:00,64.0,64.0,-100.00,WSW,254,3.0,5.0,99,0.00,,,0.82,0.000000,,2013-05-23 05:02:00,
2013-05-23 01:11:00,64.0,64.0,-100.00,WSW,254,3.0,5.0,99,0.00,,,0.82,0.000000,,2013-05-23 05:11:00,
2013-05-23 01:32:00,65.0,63.0,-100.00,SW,229,2.0,13.0,92,0.00,,,0.82,0.000000,,2013-05-23 05:32:00,
2013-05-23 01:43:00,65.0,63.0,-100.00,SW,229,2.0,13.0,92,0.00,,,0.82,0.000000,,2013-05-23 05:43:00,
2013-05-23 01:52:00,65.0,63.0,-100.00,SW,229,2.0,13.0,92,0.00,,,0.82,0.000000,,2013-05-23 05:52:00,
2013-05-23 02:02:00,65.0,63.0,-100.00,SW,229,2.0,13.0,92,0.00,,,0.82,0.000000,,2013-05-23 06:02:00,
2013-05-23 02:12:00,65.0,63.0,-100.00,SW,229,2.0,13.0,92,0.00,,,0.82,0.000000,,2013-05-23 06:12:00,
2013-05-23 02:32:00,64.0,63.0,-100.00,SE,132,3.0,6.0,97,0.03,,,0.85,0.000000,,2013-05-23 06:32:00,
2013-05-23 02:42:00,64.0,63.0,-100.00,SE,132,3.0,6.0,97,0.03,,,0.85,0.000000,,2013-05-23 06:42:00,
2013-05-23 02:52:00,64.0,63.0,-100.00,SE,132,3.0,6.0,97,0.03,,,0.85,0.000000,,2013-05-23 06:52:00,
2013-05-23 03:02:00,64.0,63.0,-100.00,SE,132,3.0,6.0,97,0.03,,,0.85,0.000000,,2013-05-23 07:02:00,
2013-05-23 03:11:00,64.0,63.0,-100.00,SE,132,3.0,6.0,97,0.03,,,0.85,0.000000,,2013-05-23 07:11:00,
2013-05-23 03:32:00,63.0,62.0,-100.00,SW,215,0.0,2.0,98,0.03,,,0.88,0.000000,,2013-05-23 07:32:00,
2013-05-23 03:42:00,63.0,62.0,-100.00,SW,215,0.0,2.0,98,0.03,,,0.88,0.000000,,2013-05-23 07:42:00,
2013-05-23 03:59:00,63.0,62.0,-100.00,SW,215,0.0,2.0,98,0.03,,,0.88,0.000000,,2013-05-23 07:59:00,
2013-05-23 04:12:00,63.0,62.0,-100.00,SW,215,0.0,2.0,98,0.03,,,0.88,0.000000,,2013-05-23 08:12:00,
2013-05-23 04:32:00,63.0,63.0,-100.00,SW,220,1.0,5.0,99,0.02,,,0.90,0.000000,,2013-05-23 08:32:00,
2013-05-23 04:42:00,63.0,63.0,-100.00,SW,220,1.0,5.0,99,0.02,,,0.90,0.000000,,2013-05-23 08:42:00,
2013-05-23 04:52:00,63.0,63.0,-100.00,SW,220,1.0,5.0,99,0.02,,,0.90,0.000000,,2013-05-23 08:52:00,
2013-05-23 05:02:00,63.0,63.0,-100.00,SW,220,1.0,5.0,99,0.02,,,0.90,0.000000,,2013-05-23 09:02:00,
2013-05-23 05:11:00,63.0,63.0,-100.00,SW,220,1.0,5.0,99,0.02,,,0.90,0.000000,,2013-05-23 09:11:00,
2013-05-23 05:42:00,62.0,62.0,-100.00,ESE,115,0.0,3.0,100,0.00,,,0.90,0.000000,,2013-05-23 09:42:00,
2013-05-23 05:53:00,62.0,62.0,-100.00,ESE,115,0.0,3.0,100,0.00,,,0.90,0.000000,,2013-05-23 09:53:00,
2013-05-23 06:03:00,62.0,62.0,-100.00,ESE,115,0.0,3.0,100,0.00,,,0.90,0.000000,,2013-05-23 10:03:00,
2013-05-23 06:13:00,62.0,62.0,-100.00,ESE,115,0.0,3.0,100,0.00,,,0.90,0.000000,,2013-05-23 10:13:00,
2013-05-23 06:32:00,62.0,62.0,-100.00,ESE,122,1.0,3.0,100,0.00,,,0.90,1.000000,,2013-05-23 10:32:00,
2013-05-23 06:42:00,62.0,62.0,-100.00,ESE,122,1.0,3.0,100,0.00,,,0.90,1.000000,,2013-05-23 10:42:00,
2013-05-23 06:52:00,62.0,62.0,-100.00,ESE,122,1.0,3.0,100,0.00,,,0.90,1.000000,,2013-05-23 10:52:00,
2013-05-23 07:02:00,62.0,62.0,-100.00,ESE,122,1.0,3.0,100,0.00,,,0.90,1.000000,,2013-05-23 11:02:00,
2013-05-23 07:11:00,62.0,62.0,-100.00,ESE,122,1.0,3.0,100,0.00,,,0.90,1.000000,,2013-05-23 11:11:00,
2013-05-23 07:42:00,63.0,63.0,-100.00,SSE,159,1.0,3.0,100,0.00,,,0.90,20.000000,,2013-05-23 11:42:00,
2013-05-23 07:52:00,63.0,63.0,-100.00,SSE,159,1.0,3.0,100,0.00,,,0.90,20.000000,,2013-05-23 11:52:00,
2013-05-23 08:01:00,63.0,63.0,-100.00,SSE,159,1.0,3.0,100,0.00,,,0.90,20.000000,,2013-05-23 12:01:00,
2013-05-23 08:12:00,63.0,63.0,-100.00,SSE,159,1.0,3.0,100,0.00,,,0.90,20.000000,,2013-05-23 12:12:00,
2013-05-23 08:32:00,65.0,62.0,-100.00,West,275,3.0,6.0,91,0.00,,,0.90,74.000000,,2013-05-23 12:32:00,
2013-05-23 08:42:00,65.0,62.0,-100.00,West,275,3.0,6.0,91,0.00,,,0.90,74.000000,,2013-05-23 12:42:00,
2013-05-23 08:52:00,65.0,62.0,-100.00,West,275,3.0,6.0,91,0.00,,,0.90,74.000000,,2013-05-23 12:52:00,
2013-05-23 09:02:00,65.0,62.0,-100.00,West,275,3.0,6.0,91,0.00,,,0.90,74.000000,,2013-05-23 13:02:00,
2013-05-23 09:11:00,65.0,62.0,-100.00,West,275,3.0,6.0,91,0.00,,,0.90,74.000000,,2013-05-23 13:11:00,
2013-05-23 09:32:00,67.0,62.0,-100.00,WSW,254,5.0,11.0,85,0.00,,,0.90,167.000000,,2013-05-23 13:32:00,
2013-05-23 09:42:00,67.0,62.0,-100.00,WSW,254,5.0,11.0,85,0.00,,,0.90,167.000000,,2013-05-23 13:42:00,
2013-05-23 09:52:00,67.0,62.0,-100.00,WSW,254,5.0,11.0,85,0.00,,,0.90,167.000000,,2013-05-23 13:52:00,
2013-05-23 10:02:00,67.0,62.0,-100.00,WSW,254,5.0,11.0,85,0.00,,,0.90,167.000000,,2013-05-23 14:02:00,
2013-05-23 10:11:00,67.0,62.0,-100.00,WSW,254,5.0,11.0,85,0.00,,,0.90,167.000000,,2013-05-23 14:11:00,
2013-05-23 10:42:00,70.0,64.0,-100.00,WSW,237,5.0,10.0,80,0.00,,,0.90,389.000000,,2013-05-23 14:42:00,
2013-05-23 10:52:00,70.0,64.0,-100.00,WSW,237,5.0,10.0,80,0.00,,,0.90,389.000000,,2013-05-23 14:52:00,
2013-05-23 11:01:00,70.0,64.0,-100.00,WSW,237,5.0,10.0,80,0.00,,,0.90,389.000000,,2013-05-23 15:01:00,
2013-05-23 11:11:00,70.0,64.0,-100.00,WSW,237,5.0,10.0,80,0.00,,,0.90,389.000000,,2013-05-23 15:11:00,
2013-05-23 11:33:00,72.0,63.0,-100.00,West,269,7.0,12.0,73,0.00,,,0.90,432.000000,,2013-05-23 15:33:00,
2013-05-23 11:43:00,72.0,63.0,-100.00,West,269,7.0,12.0,73,0.00,,,0.90,432.000000,,2013-05-23 15:43:00,
2013-05-23 11:53:00,72.0,63.0,-100.00,West,269,7.0,12.0,73,0.00,,,0.90,432.000000,,2013-05-23 15:53:00,
2013-05-23 12:03:00,72.0,63.0,-100.00,West,269,7.0,12.0,73,0.00,,,0.90,432.000000,,2013-05-23 16:03:00,
2013-05-23 12:13:00,72.0,63.0,-100.00,West,269,7.0,12.0,73,0.00,,,0.90,432.000000,,2013-05-23 16:13:00,
2013-05-23 12:34:00,74.0,60.0,-100.00,West,264,8.0,12.0,61,0.00,,,0.90,794.000000,,2013-05-23 16:34:00,
2013-05-23 12:43:00,74.0,60.0,-100.00,West,264,8.0,12.0,61,0.00,,,0.90,794.000000,,2013-05-23 16:43:00,
2013-05-23 12:53:00,74.0,60.0,-100.00,West,264,8.0,12.0,61,0.00,,,0.90,794.000000,,2013-05-23 16:53:00,
2013-05-23 13:03:00,74.0,60.0,-100.00,West,264,8.0,12.0,61,0.00,,,0.90,794.000000,,2013-05-23 17:03:00,
2013-05-23 13:11:00,74.0,60.0,-100.00,West,264,8.0,12.0,61,0.00,,,0.90,794.000000,,2013-05-23 17:11:00,
2013-05-23 13:33:00,77.0,57.0,-100.00,SW,226,6.0,13.0,51,0.00,,,0.89,763.000000,,2013-05-23 17:33:00,
2013-05-23 13:43:00,77.0,57.0,-100.00,SW,226,6.0,13.0,51,0.00,,,0.89,763.000000,,2013-05-23 17:43:00,
2013-05-23 13:53:00,77.0,57.0,-100.00,SW,226,6.0,13.0,51,0.00,,,0.89,763.000000,,2013-05-23 17:53:00,
2013-05-23 14:01:00,77.0,57.0,-100.00,SW,226,6.0,13.0,51,0.00,,,0.89,763.000000,,2013-05-23 18:01:00,
2013-05-23 14:11:00,77.0,57.0,-100.00,SW,226,6.0,13.0,51,0.00,,,0.89,763.000000,,2013-05-23 18:11:00,
2013-05-23 14:32:00,76.0,54.0,-100.00,West,264,7.0,19.0,47,0.00,,,0.89,624.000000,,2013-05-23 18:32:00,
2013-05-23 14:42:00,76.0,54.0,-100.00,West,264,7.0,19.0,47,0.00,,,0.89,624.000000,,2013-05-23 18:42:00,
2013-05-23 14:52:00,76.0,54.0,-100.00,West,264,7.0,19.0,47,0.00,,,0.89,624.000000,,2013-05-23 18:52:00,
2013-05-23 15:02:00,76.0,54.0,-100.00,West,264,7.0,19.0,47,0.00,,,0.89,624.000000,,2013-05-23 19:02:00,
2013-05-23 15:11:00,76.0,54.0,-100.00,West,264,7.0,19.0,47,0.00,,,0.89,624.000000,,2013-05-23 19:11:00,
2013-05-23 15:32:00,78.0,57.0,-100.00,West,260,7.0,15.0,49,0.00,,,0.89,693.000000,,2013-05-23 19:32:00,
2013-05-23 15:42:00,78.0,57.0,-100.00,West,260,7.0,15.0,49,0.00,,,0.89,693.000000,,2013-05-23 19:42:00,
2013-05-23 15:52:00,78.0,57.0,-100.00,West,260,7.0,15.0,49,0.00,,,0.89,693.000000,,2013-05-23 19:52:00,
2013-05-23 16:02:00,78.0,57.0,-100.00,West,260,7.0,15.0,49,0.00,,,0.89,693.000000,,2013-05-23 20:02:00,
2013-05-23 16:12:00,78.0,57.0,-100.00,West,260,7.0,15.0,49,0.00,,,0.89,693.000000,,2013-05-23 20:12:00,
2013-05-23 16:32:00,75.0,57.0,-100.00,West,277,8.0,19.0,54,0.00,,,0.80,438.000000,,2013-05-23 20:32:00,
2013-05-23 16:42:00,75.0,57.0,-100.00,West,277,8.0,19.0,54,0.00,,,0.80,438.000000,,2013-05-23 20:42:00,
2013-05-23 16:52:00,75.0,57.0,-100.00,West,277,8.0,19.0,54,0.00,,,0.80,438.000000,,2013-05-23 20:52:00,
2013-05-23 17:01:00,75.0,57.0,-100.00,West,277,8.0,19.0,54,0.00,,,0.80,438.000000,,2013-05-23 21:01:00,
2013-05-23 17:11:00,75.0,57.0,-100.00,West,277,8.0,19.0,54,0.00,,,0.80,438.000000,,2013-05-23 21:11:00,
2013-05-23 17:33:00,65.0,57.0,-100.00,West,269,5.0,21.0,75,0.02,,,0.70,167.000000,,2013-05-23 21:33:00,
2013-05-23 17:43:00,65.0,57.0,-100.00,West,269,5.0,21.0,75,0.02,,,0.70,167.000000,,2013-05-23 21:43:00,
2013-05-23 17:53:00,65.0,57.0,-100.00,West,269,5.0,21.0,75,0.02,,,0.70,167.000000,,2013-05-23 21:53:00,
2013-05-23 18:03:00,65.0,57.0,-100.00,West,269,5.0,21.0,75,0.02,,,0.70,167.000000,,2013-05-23 22:03:00,
2013-05-23 18:12:00,65.0,57.0,-100.00,West,269,5.0,21.0,75,0.02,,,0.70,167.000000,,2013-05-23 22:12:00,
2013-05-23 18:33:00,66.0,61.0,-100.00,West,275,4.0,9.0,85,0.00,,,-99.99,128.000000,,2013-05-23 22:33:00,
2013-05-23 18:42:00,66.0,61.0,-100.00,West,275,4.0,9.0,85,0.00,,,-99.99,128.000000,,2013-05-23 22:42:00,
2013-05-23 18:52:00,66.0,61.0,-100.00,West,275,4.0,9.0,85,0.00,,,-99.99,128.000000,,2013-05-23 22:52:00,
2013-05-23 19:02:00,66.0,61.0,-100.00,West,275,4.0,9.0,85,0.00,,,-99.99,128.000000,,2013-05-23 23:02:00,
2013-05-23 19:12:00,66.0,61.0,-100.00,West,275,4.0,9.0,85,0.00,,,-99.99,128.000000,,2013-05-23 23:12:00,
2013-05-23 19:32:00,65.0,60.0,-100.00,WNW,302,5.0,7.0,85,0.00,,,0.47,100.000000,,2013-05-23 23:32:00,
2013-05-23 19:42:00,65.0,60.0,-100.00,WNW,302,5.0,7.0,85,0.00,,,0.47,100.000000,,2013-05-23 23:42:00,
2013-05-23 19:52:00,65.0,60.0,-100.00,WNW,302,5.0,7.0,85,0.00,,,0.47,100.000000,,2013-05-23 23:52:00,
2013-05-23 20:01:00,65.0,60.0,-100.00,WNW,302,5.0,7.0,85,0.00,,,0.47,100.000000,,2013-05-24 00:01:00,
2013-05-23 20:12:00,65.0,60.0,-100.00,WNW,302,5.0,7.0,85,0.00,,,0.47,100.000000,,2013-05-24 00:12:00,
2013-05-23 20:32:00,64.0,61.0,-100.00,SW,233,2.0,6.0,91,0.02,,,-99.99,25.000000,,2013-05-24 00:32:00,
2013-05-23 20:42:00,64.0,61.0,-100.00,SW,233,2.0,6.0,91,0.02,,,-99.99,25.000000,,2013-05-24 00:42:00,
2013-05-23 20:52:00,64.0,61.0,-100.00,SW,233,2.0,6.0,91,0.02,,,-99.99,25.000000,,2013-05-24 00:52:00,
2013-05-23 21:01:00,64.0,61.0,-100.00,SW,233,2.0,6.0,91,0.02,,,-99.99,25.000000,,2013-05-24 01:01:00,
2013-05-23 21:12:00,64.0,61.0,-100.00,SW,233,2.0,6.0,91,0.02,,,-99.99,25.000000,,2013-05-24 01:12:00,
2013-05-23 21:32:00,62.0,61.0,-100.00,WSW,257,1.0,3.0,96,0.00,,,0.20,3.000000,,2013-05-24 01:32:00,
2013-05-23 21:42:00,62.0,61.0,-100.00,WSW,257,1.0,3.0,96,0.00,,,0.20,3.000000,,2013-05-24 01:42:00,
2013-05-23 21:52:00,62.0,61.0,-100.00,WSW,257,1.0,3.0,96,0.00,,,0.20,3.000000,,2013-05-24 01:52:00,
2013-05-23 22:02:00,62.0,61.0,-100.00,WSW,257,1.0,3.0,96,0.00,,,0.20,3.000000,,2013-05-24 02:02:00,
2013-05-23 22:12:00,62.0,61.0,-100.00,WSW,257,1.0,3.0,96,0.00,,,0.20,3.000000,,2013-05-24 02:12:00,
2013-05-23 22:32:00,63.0,61.0,-100.00,WSW,258,5.0,9.0,94,0.00,,,0.12,0.000000,,2013-05-24 02:32:00,
2013-05-23 22:42:00,63.0,61.0,-100.00,WSW,258,5.0,9.0,94,0.00,,,0.12,0.000000,,2013-05-24 02:42:00,
2013-05-23 22:52:00,63.0,61.0,-100.00,WSW,258,5.0,9.0,94,0.00,,,0.12,0.000000,,2013-05-24 02:52:00,
2013-05-23 23:02:00,63.0,61.0,-100.00,WSW,258,5.0,9.0,94,0.00,,,0.12,0.000000,,2013-05-24 03:02:00,
2013-05-23 23:11:00,63.0,61.0,-100.00,WSW,258,5.0,9.0,94,0.00,,,0.12,0.000000,,2013-05-24 03:11:00,
2013-05-23 23:33:00,62.0,56.0,-100.00,WSW,257,4.0,9.0,82,0.00,,,0.12,0.000000,,2013-05-24 03:33:00,
2013-05-23 23:43:00,62.0,56.0,-100.00,WSW,257,4.0,9.0,82,0.00,,,0.12,0.000000,,2013-05-24 03:43:00,
2013-05-23 23:53:00,62.0,56.0,-100.00,WSW,257,4.0,9.0,82,0.00,,,0.12,0.000000,,2013-05-24 03:53:00,